sensor_id;sensor_type;location;lat;lon;timestamp;temperature;humidity
59025;DHT22;44806;48.008;13.666;2023-04-28T00:00:20;8.20;99.90
59025;DHT22;44806;48.008;13.666;2023-04-28T00:02:47;8.20;99.90
59025;DHT22;44806;48.008;13.666;2023-04-28T00:05:14;8.20;99.90
59025;DHT22;44806;48.008;13.666;2023-04-28T00:07:43;8.10;99.90
59025;DHT22;44806;48.008;13.666;2023-04-28T00:10:10;8.10;99.90
59025;DHT22;44806;48.008;13.666;2023-04-28T00:12:37;8.10;99.90
59025;DHT22;44806;48.008;13.666;2023-04-28T00:15:04;8.10;99.90
59025;DHT22;44806;48.008;13.666;2023-04-28T00:17:32;8.10;99.90
59025;DHT22;44806;48.008;13.666;2023-04-28T00:19:58;8.10;99.90
59025;DHT22;44806;48.008;13.666;2023-04-28T00:22:25;8.10;99.90
59025;DHT22;44806;48.008;13.666;2023-04-28T00:24:54;8.10;99.90
59025;DHT22;44806;48.008;13.666;2023-04-28T00:27:21;8.10;99.90
59025;DHT22;44806;48.008;13.666;2023-04-28T00:29:48;8.00;99.90
59025;DHT22;44806;48.008;13.666;2023-04-28T00:32:15;8.00;99.90
59025;DHT22;44806;48.008;13.666;2023-04-28T00:34:42;8.00;99.90
59025;DHT22;44806;48.008;13.666;2023-04-28T00:37:09;8.10;99.90
59025;DHT22;44806;48.008;13.666;2023-04-28T00:39:36;8.00;99.90
59025;DHT22;44806;48.008;13.666;2023-04-28T00:42:04;8.00;99.90
59025;DHT22;44806;48.008;13.666;2023-04-28T00:44:31;8.00;99.90
59025;DHT22;44806;48.008;13.666;2023-04-28T00:46:58;7.90;99.90
59025;DHT22;44806;48.008;13.666;2023-04-28T00:49:25;7.90;99.90
59025;DHT22;44806;48.008;13.666;2023-04-28T00:51:52;7.90;99.90
59025;DHT22;44806;48.008;13.666;2023-04-28T00:54:20;7.90;99.90
59025;DHT22;44806;48.008;13.666;2023-04-28T00:56:47;7.90;99.90
59025;DHT22;44806;48.008;13.666;2023-04-28T00:59:16;7.90;99.90
59025;DHT22;44806;48.008;13.666;2023-04-28T01:01:43;7.80;99.90
59025;DHT22;44806;48.008;13.666;2023-04-28T01:04:10;7.80;99.90
59025;DHT22;44806;48.008;13.666;2023-04-28T01:06:37;7.80;99.90
59025;DHT22;44806;48.008;13.666;2023-04-28T01:09:04;7.80;99.90
59025;DHT22;44806;48.008;13.666;2023-04-28T01:11:32;7.80;99.90
59025;DHT22;44806;48.008;13.666;2023-04-28T01:13:59;7.70;99.90
59025;DHT22;44806;48.008;13.666;2023-04-28T01:16:27;7.70;99.90
59025;DHT22;44806;48.008;13.666;2023-04-28T01:18:54;7.70;99.90
59025;DHT22;44806;48.008;13.666;2023-04-28T01:21:25;7.70;99.90
59025;DHT22;44806;48.008;13.666;2023-04-28T01:23:55;7.70;99.90
59025;DHT22;44806;48.008;13.666;2023-04-28T01:26:22;7.60;99.90
59025;DHT22;44806;48.008;13.666;2023-04-28T01:28:49;7.60;99.90
59025;DHT22;44806;48.008;13.666;2023-04-28T01:31:16;7.50;99.90
59025;DHT22;44806;48.008;13.666;2023-04-28T01:33:43;7.40;99.90
59025;DHT22;44806;48.008;13.666;2023-04-28T01:36:10;7.40;99.90
59025;DHT22;44806;48.008;13.666;2023-04-28T01:38:38;7.40;99.90
59025;DHT22;44806;48.008;13.666;2023-04-28T01:41:06;7.50;99.90
59025;DHT22;44806;48.008;13.666;2023-04-28T01:43:33;7.40;99.90
59025;DHT22;44806;48.008;13.666;2023-04-28T01:46:00;7.50;99.90
59025;DHT22;44806;48.008;13.666;2023-04-28T01:48:27;7.50;99.90
59025;DHT22;44806;48.008;13.666;2023-04-28T01:50:54;7.40;99.90
59025;DHT22;44806;48.008;13.666;2023-04-28T01:53:21;7.40;99.90
59025;DHT22;44806;48.008;13.666;2023-04-28T01:55:48;7.40;99.90
59025;DHT22;44806;48.008;13.666;2023-04-28T01:58:17;7.40;99.90
59025;DHT22;44806;48.008;13.666;2023-04-28T02:00:44;7.40;99.90
59025;DHT22;44806;48.008;13.666;2023-04-28T02:03:11;7.40;99.90
59025;DHT22;44806;48.008;13.666;2023-04-28T02:05:38;7.40;99.90
59025;DHT22;44806;48.008;13.666;2023-04-28T02:08:05;7.40;99.90
59025;DHT22;44806;48.008;13.666;2023-04-28T02:10:32;7.40;99.90
59025;DHT22;44806;48.008;13.666;2023-04-28T02:12:59;7.40;99.90
59025;DHT22;44806;48.008;13.666;2023-04-28T02:15:27;7.40;99.90
59025;DHT22;44806;48.008;13.666;2023-04-28T02:17:55;7.40;99.90
59025;DHT22;44806;48.008;13.666;2023-04-28T02:20:21;7.40;99.90
59025;DHT22;44806;48.008;13.666;2023-04-28T02:22:48;7.40;99.90
59025;DHT22;44806;48.008;13.666;2023-04-28T02:25:15;7.40;99.90
59025;DHT22;44806;48.008;13.666;2023-04-28T02:27:43;7.40;99.90
59025;DHT22;44806;48.008;13.666;2023-04-28T02:30:11;7.30;99.90
59025;DHT22;44806;48.008;13.666;2023-04-28T02:32:39;7.20;99.90
59025;DHT22;44806;48.008;13.666;2023-04-28T02:35:07;7.30;99.90
59025;DHT22;44806;48.008;13.666;2023-04-28T02:37:34;7.30;99.90
59025;DHT22;44806;48.008;13.666;2023-04-28T02:40:01;7.30;99.90
59025;DHT22;44806;48.008;13.666;2023-04-28T02:42:27;7.30;99.90
59025;DHT22;44806;48.008;13.666;2023-04-28T02:44:54;7.30;99.90
59025;DHT22;44806;48.008;13.666;2023-04-28T02:47:21;7.30;99.90
59025;DHT22;44806;48.008;13.666;2023-04-28T02:49:50;7.30;99.90
59025;DHT22;44806;48.008;13.666;2023-04-28T02:52:16;7.30;99.90
59025;DHT22;44806;48.008;13.666;2023-04-28T02:54:43;7.20;99.90
59025;DHT22;44806;48.008;13.666;2023-04-28T02:57:13;7.20;99.90
59025;DHT22;44806;48.008;13.666;2023-04-28T02:59:40;7.20;99.90
59025;DHT22;44806;48.008;13.666;2023-04-28T03:02:07;7.20;99.90
59025;DHT22;44806;48.008;13.666;2023-04-28T03:04:34;7.20;99.90
59025;DHT22;44806;48.008;13.666;2023-04-28T03:07:03;7.20;99.90
59025;DHT22;44806;48.008;13.666;2023-04-28T03:09:30;7.10;99.90
59025;DHT22;44806;48.008;13.666;2023-04-28T03:11:56;7.20;99.90
59025;DHT22;44806;48.008;13.666;2023-04-28T03:14:23;7.20;99.90
59025;DHT22;44806;48.008;13.666;2023-04-28T03:16:50;7.20;99.90
59025;DHT22;44806;48.008;13.666;2023-04-28T03:19:17;7.30;99.90
59025;DHT22;44806;48.008;13.666;2023-04-28T03:21:44;7.20;99.90
59025;DHT22;44806;48.008;13.666;2023-04-28T03:24:13;7.20;99.90
59025;DHT22;44806;48.008;13.666;2023-04-28T03:26:40;7.20;99.90
59025;DHT22;44806;48.008;13.666;2023-04-28T03:29:07;7.10;99.90
59025;DHT22;44806;48.008;13.666;2023-04-28T03:31:34;7.20;99.90
59025;DHT22;44806;48.008;13.666;2023-04-28T03:34:01;7.20;99.90
59025;DHT22;44806;48.008;13.666;2023-04-28T03:36:29;7.20;99.90
59025;DHT22;44806;48.008;13.666;2023-04-28T03:38:56;7.30;99.90
59025;DHT22;44806;48.008;13.666;2023-04-28T03:41:24;7.30;99.90
59025;DHT22;44806;48.008;13.666;2023-04-28T03:43:51;7.30;99.90
59025;DHT22;44806;48.008;13.666;2023-04-28T03:46:18;7.30;99.90
59025;DHT22;44806;48.008;13.666;2023-04-28T03:48:45;7.20;99.90
59025;DHT22;44806;48.008;13.666;2023-04-28T03:51:12;7.20;99.90
59025;DHT22;44806;48.008;13.666;2023-04-28T03:53:39;7.20;99.90
59025;DHT22;44806;48.008;13.666;2023-04-28T03:56:06;7.20;99.90
59025;DHT22;44806;48.008;13.666;2023-04-28T03:58:35;7.20;99.90
59025;DHT22;44806;48.008;13.666;2023-04-28T04:01:02;7.10;99.90
59025;DHT22;44806;48.008;13.666;2023-04-28T04:03:29;7.20;99.90
59025;DHT22;44806;48.008;13.666;2023-04-28T04:05:56;7.30;99.90
59025;DHT22;44806;48.008;13.666;2023-04-28T04:08:24;7.30;99.90
59025;DHT22;44806;48.008;13.666;2023-04-28T04:10:51;7.30;99.90
59025;DHT22;44806;48.008;13.666;2023-04-28T04:13:19;7.30;99.90
59025;DHT22;44806;48.008;13.666;2023-04-28T04:15:47;7.20;99.90
59025;DHT22;44806;48.008;13.666;2023-04-28T04:18:17;7.30;99.90
59025;DHT22;44806;48.008;13.666;2023-04-28T04:20:43;7.20;99.90
59025;DHT22;44806;48.008;13.666;2023-04-28T04:23:10;7.10;99.90
59025;DHT22;44806;48.008;13.666;2023-04-28T04:25:37;7.10;99.90
59025;DHT22;44806;48.008;13.666;2023-04-28T04:28:04;7.10;99.90
59025;DHT22;44806;48.008;13.666;2023-04-28T04:30:31;7.10;99.90
59025;DHT22;44806;48.008;13.666;2023-04-28T04:32:59;7.30;99.90
59025;DHT22;44806;48.008;13.666;2023-04-28T04:35:26;7.20;99.90
59025;DHT22;44806;48.008;13.666;2023-04-28T04:37:54;7.20;99.90
59025;DHT22;44806;48.008;13.666;2023-04-28T04:40:21;7.10;99.90
59025;DHT22;44806;48.008;13.666;2023-04-28T04:42:48;7.10;99.90
59025;DHT22;44806;48.008;13.666;2023-04-28T04:45:15;7.10;99.90
59025;DHT22;44806;48.008;13.666;2023-04-28T04:47:42;7.00;99.90
59025;DHT22;44806;48.008;13.666;2023-04-28T04:50:11;7.10;99.90
59025;DHT22;44806;48.008;13.666;2023-04-28T04:52:38;7.00;99.90
59025;DHT22;44806;48.008;13.666;2023-04-28T04:55:06;7.00;99.90
59025;DHT22;44806;48.008;13.666;2023-04-28T04:57:33;7.00;99.90
59025;DHT22;44806;48.008;13.666;2023-04-28T05:00:00;7.10;99.90
59025;DHT22;44806;48.008;13.666;2023-04-28T05:02:27;7.20;99.90
59025;DHT22;44806;48.008;13.666;2023-04-28T05:04:53;7.20;99.90
59025;DHT22;44806;48.008;13.666;2023-04-28T05:07:22;7.20;99.90
59025;DHT22;44806;48.008;13.666;2023-04-28T05:09:49;7.30;99.90
59025;DHT22;44806;48.008;13.666;2023-04-28T05:12:15;7.40;99.90
59025;DHT22;44806;48.008;13.666;2023-04-28T05:14:42;7.50;99.90
59025;DHT22;44806;48.008;13.666;2023-04-28T05:17:09;7.50;99.90
59025;DHT22;44806;48.008;13.666;2023-04-28T05:19:36;7.60;99.90
59025;DHT22;44806;48.008;13.666;2023-04-28T05:22:03;7.60;99.90
59025;DHT22;44806;48.008;13.666;2023-04-28T05:24:33;7.60;99.90
59025;DHT22;44806;48.008;13.666;2023-04-28T05:27:00;7.70;99.90
59025;DHT22;44806;48.008;13.666;2023-04-28T05:29:27;7.70;99.90
59025;DHT22;44806;48.008;13.666;2023-04-28T05:31:54;7.80;99.90
59025;DHT22;44806;48.008;13.666;2023-04-28T05:34:20;7.90;99.90
59025;DHT22;44806;48.008;13.666;2023-04-28T05:36:47;7.90;99.90
59025;DHT22;44806;48.008;13.666;2023-04-28T05:39:14;7.90;99.90
59025;DHT22;44806;48.008;13.666;2023-04-28T05:41:43;8.00;99.90
59025;DHT22;44806;48.008;13.666;2023-04-28T05:44:09;8.10;99.90
59025;DHT22;44806;48.008;13.666;2023-04-28T05:46:36;8.00;99.90
59025;DHT22;44806;48.008;13.666;2023-04-28T05:49:03;8.00;99.90
59025;DHT22;44806;48.008;13.666;2023-04-28T05:51:30;8.10;99.90
59025;DHT22;44806;48.008;13.666;2023-04-28T05:53:58;8.10;99.90
59025;DHT22;44806;48.008;13.666;2023-04-28T05:56:25;8.20;99.90
59025;DHT22;44806;48.008;13.666;2023-04-28T05:58:53;8.30;99.90
59025;DHT22;44806;48.008;13.666;2023-04-28T06:01:21;8.30;99.90
59025;DHT22;44806;48.008;13.666;2023-04-28T06:03:48;8.30;99.90
59025;DHT22;44806;48.008;13.666;2023-04-28T06:06:15;8.30;99.90
59025;DHT22;44806;48.008;13.666;2023-04-28T06:08:42;8.40;99.90
59025;DHT22;44806;48.008;13.666;2023-04-28T06:11:09;8.40;99.90
59025;DHT22;44806;48.008;13.666;2023-04-28T06:13:36;8.50;99.90
59025;DHT22;44806;48.008;13.666;2023-04-28T06:16:05;8.60;99.90
59025;DHT22;44806;48.008;13.666;2023-04-28T06:18:32;8.60;99.90
59025;DHT22;44806;48.008;13.666;2023-04-28T06:20:59;8.70;99.90
59025;DHT22;44806;48.008;13.666;2023-04-28T06:23:26;8.70;99.90
59025;DHT22;44806;48.008;13.666;2023-04-28T06:25:53;8.80;99.90
59025;DHT22;44806;48.008;13.666;2023-04-28T06:28:20;8.80;99.90
59025;DHT22;44806;48.008;13.666;2023-04-28T06:30:47;8.90;99.90
59025;DHT22;44806;48.008;13.666;2023-04-28T06:33:15;9.00;99.90
59025;DHT22;44806;48.008;13.666;2023-04-28T06:35:42;9.00;99.90
59025;DHT22;44806;48.008;13.666;2023-04-28T06:38:09;9.00;99.90
59025;DHT22;44806;48.008;13.666;2023-04-28T06:40:36;9.10;99.90
59025;DHT22;44806;48.008;13.666;2023-04-28T06:43:04;9.10;99.90
59025;DHT22;44806;48.008;13.666;2023-04-28T06:45:31;9.20;99.90
59025;DHT22;44806;48.008;13.666;2023-04-28T06:47:58;9.20;99.90
59025;DHT22;44806;48.008;13.666;2023-04-28T06:50:26;9.10;99.90
59025;DHT22;44806;48.008;13.666;2023-04-28T06:52:53;9.20;99.90
59025;DHT22;44806;48.008;13.666;2023-04-28T06:55:20;9.20;99.90
59025;DHT22;44806;48.008;13.666;2023-04-28T06:57:48;9.30;99.90
59025;DHT22;44806;48.008;13.666;2023-04-28T07:00:16;9.20;99.90
59025;DHT22;44806;48.008;13.666;2023-04-28T07:02:43;9.30;99.90
59025;DHT22;44806;48.008;13.666;2023-04-28T07:05:09;9.30;99.90
59025;DHT22;44806;48.008;13.666;2023-04-28T07:07:38;9.30;99.90
59025;DHT22;44806;48.008;13.666;2023-04-28T07:10:05;9.30;99.90
59025;DHT22;44806;48.008;13.666;2023-04-28T07:12:32;9.30;99.90
59025;DHT22;44806;48.008;13.666;2023-04-28T07:14:59;9.40;99.90
59025;DHT22;44806;48.008;13.666;2023-04-28T07:17:26;9.40;99.90
59025;DHT22;44806;48.008;13.666;2023-04-28T07:19:53;9.50;99.90
59025;DHT22;44806;48.008;13.666;2023-04-28T07:22:20;9.60;99.90
59025;DHT22;44806;48.008;13.666;2023-04-28T07:24:48;9.60;99.90
59025;DHT22;44806;48.008;13.666;2023-04-28T07:27:15;9.60;99.90
59025;DHT22;44806;48.008;13.666;2023-04-28T07:29:42;9.50;99.90
59025;DHT22;44806;48.008;13.666;2023-04-28T07:32:09;9.40;99.90
59025;DHT22;44806;48.008;13.666;2023-04-28T07:34:36;9.40;99.90
59025;DHT22;44806;48.008;13.666;2023-04-28T07:37:03;9.40;99.90
59025;DHT22;44806;48.008;13.666;2023-04-28T07:39:31;9.40;99.90
59025;DHT22;44806;48.008;13.666;2023-04-28T07:42:00;9.40;99.90
59025;DHT22;44806;48.008;13.666;2023-04-28T07:44:28;9.40;99.90
59025;DHT22;44806;48.008;13.666;2023-04-28T07:46:55;9.40;99.90
59025;DHT22;44806;48.008;13.666;2023-04-28T07:49:22;9.50;99.90
59025;DHT22;44806;48.008;13.666;2023-04-28T07:51:49;9.50;99.90
59025;DHT22;44806;48.008;13.666;2023-04-28T07:54:19;9.50;99.90
59025;DHT22;44806;48.008;13.666;2023-04-28T07:56:46;9.50;99.90
59025;DHT22;44806;48.008;13.666;2023-04-28T07:59:14;9.40;99.90
59025;DHT22;44806;48.008;13.666;2023-04-28T08:01:41;9.50;99.90
59025;DHT22;44806;48.008;13.666;2023-04-28T08:04:08;9.60;99.90
59025;DHT22;44806;48.008;13.666;2023-04-28T08:06:36;9.60;99.90
59025;DHT22;44806;48.008;13.666;2023-04-28T08:09:04;9.70;99.90
59025;DHT22;44806;48.008;13.666;2023-04-28T08:11:31;9.90;99.90
59025;DHT22;44806;48.008;13.666;2023-04-28T08:13:59;9.90;99.90
59025;DHT22;44806;48.008;13.666;2023-04-28T08:16:29;10.00;99.90
59025;DHT22;44806;48.008;13.666;2023-04-28T08:18:57;10.10;99.90
59025;DHT22;44806;48.008;13.666;2023-04-28T08:21:24;10.30;99.90
59025;DHT22;44806;48.008;13.666;2023-04-28T08:23:51;10.40;99.90
59025;DHT22;44806;48.008;13.666;2023-04-28T08:26:18;10.50;99.90
59025;DHT22;44806;48.008;13.666;2023-04-28T08:28:46;10.70;99.90
59025;DHT22;44806;48.008;13.666;2023-04-28T08:31:13;10.80;99.90
59025;DHT22;44806;48.008;13.666;2023-04-28T08:33:41;10.90;99.90
59025;DHT22;44806;48.008;13.666;2023-04-28T08:36:12;11.00;99.90
59025;DHT22;44806;48.008;13.666;2023-04-28T08:38:40;11.10;99.90
59025;DHT22;44806;48.008;13.666;2023-04-28T08:41:07;11.10;99.90
59025;DHT22;44806;48.008;13.666;2023-04-28T08:43:34;11.20;99.90
59025;DHT22;44806;48.008;13.666;2023-04-28T08:46:05;11.30;99.90
59025;DHT22;44806;48.008;13.666;2023-04-28T08:48:38;11.50;99.90
59025;DHT22;44806;48.008;13.666;2023-04-28T08:51:07;11.60;99.90
59025;DHT22;44806;48.008;13.666;2023-04-28T08:53:38;11.60;99.90
59025;DHT22;44806;48.008;13.666;2023-04-28T08:56:05;11.70;99.90
59025;DHT22;44806;48.008;13.666;2023-04-28T08:58:35;11.80;99.90
59025;DHT22;44806;48.008;13.666;2023-04-28T09:01:02;11.90;99.90
59025;DHT22;44806;48.008;13.666;2023-04-28T09:03:30;12.00;99.90
59025;DHT22;44806;48.008;13.666;2023-04-28T09:05:58;12.00;99.90
59025;DHT22;44806;48.008;13.666;2023-04-28T09:08:26;12.10;99.90
59025;DHT22;44806;48.008;13.666;2023-04-28T09:11:05;12.20;99.90
59025;DHT22;44806;48.008;13.666;2023-04-28T09:13:34;12.30;99.90
59025;DHT22;44806;48.008;13.666;2023-04-28T09:16:02;12.40;99.90
59025;DHT22;44806;48.008;13.666;2023-04-28T09:18:29;12.50;99.90
59025;DHT22;44806;48.008;13.666;2023-04-28T09:21:05;12.60;99.90
59025;DHT22;44806;48.008;13.666;2023-04-28T09:23:34;12.60;99.90
59025;DHT22;44806;48.008;13.666;2023-04-28T09:26:02;12.70;99.90
59025;DHT22;44806;48.008;13.666;2023-04-28T09:28:30;12.80;99.90
59025;DHT22;44806;48.008;13.666;2023-04-28T09:30:57;12.80;99.90
59025;DHT22;44806;48.008;13.666;2023-04-28T09:33:24;12.80;99.90
59025;DHT22;44806;48.008;13.666;2023-04-28T09:35:52;12.80;99.90
59025;DHT22;44806;48.008;13.666;2023-04-28T09:38:20;12.80;99.90
59025;DHT22;44806;48.008;13.666;2023-04-28T09:40:57;12.90;99.90
59025;DHT22;44806;48.008;13.666;2023-04-28T09:43:25;12.90;99.90
59025;DHT22;44806;48.008;13.666;2023-04-28T09:45:53;12.90;99.90
59025;DHT22;44806;48.008;13.666;2023-04-28T09:48:27;13.00;99.90
59025;DHT22;44806;48.008;13.666;2023-04-28T09:50:55;13.00;99.90
59025;DHT22;44806;48.008;13.666;2023-04-28T09:53:24;13.10;99.90
59025;DHT22;44806;48.008;13.666;2023-04-28T09:55:52;13.20;99.90
59025;DHT22;44806;48.008;13.666;2023-04-28T09:58:22;13.20;99.90
59025;DHT22;44806;48.008;13.666;2023-04-28T10:00:52;13.30;99.90
59025;DHT22;44806;48.008;13.666;2023-04-28T10:03:21;13.40;99.90
59025;DHT22;44806;48.008;13.666;2023-04-28T10:05:48;13.40;99.90
59025;DHT22;44806;48.008;13.666;2023-04-28T10:08:17;13.40;99.90
59025;DHT22;44806;48.008;13.666;2023-04-28T10:10:45;13.40;99.90
59025;DHT22;44806;48.008;13.666;2023-04-28T10:13:14;13.50;99.90
59025;DHT22;44806;48.008;13.666;2023-04-28T10:15:43;13.50;99.90
59025;DHT22;44806;48.008;13.666;2023-04-28T10:18:11;13.60;99.90
59025;DHT22;44806;48.008;13.666;2023-04-28T10:20:39;13.60;99.90
59025;DHT22;44806;48.008;13.666;2023-04-28T10:23:22;13.60;99.90
59025;DHT22;44806;48.008;13.666;2023-04-28T10:25:55;13.50;99.40
59025;DHT22;44806;48.008;13.666;2023-04-28T10:28:24;13.50;99.70
59025;DHT22;44806;48.008;13.666;2023-04-28T10:31:10;13.50;99.60
59025;DHT22;44806;48.008;13.666;2023-04-28T10:33:37;13.50;99.90
59025;DHT22;44806;48.008;13.666;2023-04-28T10:36:05;13.50;99.90
59025;DHT22;44806;48.008;13.666;2023-04-28T10:38:33;13.50;99.90
59025;DHT22;44806;48.008;13.666;2023-04-28T10:41:00;13.60;99.90
59025;DHT22;44806;48.008;13.666;2023-04-28T10:43:37;13.50;99.90
59025;DHT22;44806;48.008;13.666;2023-04-28T10:46:05;13.50;99.90
59025;DHT22;44806;48.008;13.666;2023-04-28T10:48:55;13.50;99.90
59025;DHT22;44806;48.008;13.666;2023-04-28T10:51:35;13.40;99.90
59025;DHT22;44806;48.008;13.666;2023-04-28T10:54:15;13.30;99.90
59025;DHT22;44806;48.008;13.666;2023-04-28T10:57:20;13.30;99.90
59025;DHT22;44806;48.008;13.666;2023-04-28T10:59:48;13.40;99.90
59025;DHT22;44806;48.008;13.666;2023-04-28T11:02:48;13.40;99.90
59025;DHT22;44806;48.008;13.666;2023-04-28T11:05:17;13.30;99.90
59025;DHT22;44806;48.008;13.666;2023-04-28T11:11:20;13.40;99.90
59025;DHT22;44806;48.008;13.666;2023-04-28T11:13:49;13.30;99.90
59025;DHT22;44806;48.008;13.666;2023-04-28T11:16:18;13.40;99.90
59025;DHT22;44806;48.008;13.666;2023-04-28T11:18:54;13.40;99.90
59025;DHT22;44806;48.008;13.666;2023-04-28T11:21:23;13.40;99.90
59025;DHT22;44806;48.008;13.666;2023-04-28T11:23:53;13.40;99.90
59025;DHT22;44806;48.008;13.666;2023-04-28T11:26:20;13.40;99.90
59025;DHT22;44806;48.008;13.666;2023-04-28T11:28:52;13.40;99.90
59025;DHT22;44806;48.008;13.666;2023-04-28T11:31:20;13.50;99.90
59025;DHT22;44806;48.008;13.666;2023-04-28T11:33:55;13.50;99.90
59025;DHT22;44806;48.008;13.666;2023-04-28T11:36:25;13.50;99.90
59025;DHT22;44806;48.008;13.666;2023-04-28T11:38:54;13.60;99.90
59025;DHT22;44806;48.008;13.666;2023-04-28T11:41:22;13.60;99.90
59025;DHT22;44806;48.008;13.666;2023-04-28T11:43:50;13.50;99.90
59025;DHT22;44806;48.008;13.666;2023-04-28T11:46:18;13.50;99.90
59025;DHT22;44806;48.008;13.666;2023-04-28T11:48:46;13.60;99.90
59025;DHT22;44806;48.008;13.666;2023-04-28T11:51:39;13.60;99.90
59025;DHT22;44806;48.008;13.666;2023-04-28T11:54:07;13.50;99.90
59025;DHT22;44806;48.008;13.666;2023-04-28T11:56:37;13.50;99.90
59025;DHT22;44806;48.008;13.666;2023-04-28T11:59:06;13.40;99.90
59025;DHT22;44806;48.008;13.666;2023-04-28T12:01:43;13.40;99.90
59025;DHT22;44806;48.008;13.666;2023-04-28T12:04:10;13.40;99.90
59025;DHT22;44806;48.008;13.666;2023-04-28T12:06:40;13.30;99.90
59025;DHT22;44806;48.008;13.666;2023-04-28T12:09:17;13.30;99.90
59025;DHT22;44806;48.008;13.666;2023-04-28T12:11:53;13.20;99.90
59025;DHT22;44806;48.008;13.666;2023-04-28T12:14:21;13.10;99.90
59025;DHT22;44806;48.008;13.666;2023-04-28T12:16:49;13.20;99.90
59025;DHT22;44806;48.008;13.666;2023-04-28T12:19:16;13.10;99.90
59025;DHT22;44806;48.008;13.666;2023-04-28T12:21:58;13.10;99.90
59025;DHT22;44806;48.008;13.666;2023-04-28T12:24:25;13.20;99.90
59025;DHT22;44806;48.008;13.666;2023-04-28T12:26:52;13.20;99.90
59025;DHT22;44806;48.008;13.666;2023-04-28T12:29:39;13.20;99.90
59025;DHT22;44806;48.008;13.666;2023-04-28T12:32:07;13.30;99.90
59025;DHT22;44806;48.008;13.666;2023-04-28T12:34:35;13.30;99.90
59025;DHT22;44806;48.008;13.666;2023-04-28T12:37:04;13.30;99.90
59025;DHT22;44806;48.008;13.666;2023-04-28T12:39:31;13.30;99.90
59025;DHT22;44806;48.008;13.666;2023-04-28T12:41:59;13.40;99.90
59025;DHT22;44806;48.008;13.666;2023-04-28T12:44:30;13.40;99.90
59025;DHT22;44806;48.008;13.666;2023-04-28T12:47:01;13.40;99.90
59025;DHT22;44806;48.008;13.666;2023-04-28T12:49:28;13.40;99.90
59025;DHT22;44806;48.008;13.666;2023-04-28T12:51:55;13.30;99.90
59025;DHT22;44806;48.008;13.666;2023-04-28T12:54:23;13.30;99.90
59025;DHT22;44806;48.008;13.666;2023-04-28T12:56:50;13.30;99.90
59025;DHT22;44806;48.008;13.666;2023-04-28T12:59:19;13.30;99.90
59025;DHT22;44806;48.008;13.666;2023-04-28T13:01:46;13.20;99.90
59025;DHT22;44806;48.008;13.666;2023-04-28T13:04:12;13.10;99.90
59025;DHT22;44806;48.008;13.666;2023-04-28T13:06:39;13.00;99.90
59025;DHT22;44806;48.008;13.666;2023-04-28T13:09:09;13.00;99.90
59025;DHT22;44806;48.008;13.666;2023-04-28T13:11:38;13.00;99.90
59025;DHT22;44806;48.008;13.666;2023-04-28T13:14:05;12.90;99.90
59025;DHT22;44806;48.008;13.666;2023-04-28T13:16:33;13.00;99.90
59025;DHT22;44806;48.008;13.666;2023-04-28T13:19:00;13.00;99.90
59025;DHT22;44806;48.008;13.666;2023-04-28T13:21:27;13.00;99.90
59025;DHT22;44806;48.008;13.666;2023-04-28T13:23:54;13.00;99.90
59025;DHT22;44806;48.008;13.666;2023-04-28T13:26:22;13.00;99.90
59025;DHT22;44806;48.008;13.666;2023-04-28T13:28:51;13.00;99.90
59025;DHT22;44806;48.008;13.666;2023-04-28T13:31:18;13.00;99.90
59025;DHT22;44806;48.008;13.666;2023-04-28T13:33:45;13.10;99.90
59025;DHT22;44806;48.008;13.666;2023-04-28T13:36:12;13.10;99.90
59025;DHT22;44806;48.008;13.666;2023-04-28T13:38:39;13.10;99.90
59025;DHT22;44806;48.008;13.666;2023-04-28T13:41:08;13.10;99.90
59025;DHT22;44806;48.008;13.666;2023-04-28T13:43:35;13.20;99.90
59025;DHT22;44806;48.008;13.666;2023-04-28T13:46:03;13.10;99.90
59025;DHT22;44806;48.008;13.666;2023-04-28T13:48:33;13.00;99.90
59025;DHT22;44806;48.008;13.666;2023-04-28T13:51:00;13.00;99.90
59025;DHT22;44806;48.008;13.666;2023-04-28T13:53:27;13.00;99.90
59025;DHT22;44806;48.008;13.666;2023-04-28T13:55:57;13.00;99.90
59025;DHT22;44806;48.008;13.666;2023-04-28T13:58:24;13.10;99.90
59025;DHT22;44806;48.008;13.666;2023-04-28T14:00:52;13.10;99.90
59025;DHT22;44806;48.008;13.666;2023-04-28T14:03:21;13.00;99.90
59025;DHT22;44806;48.008;13.666;2023-04-28T14:05:48;13.00;99.90
59025;DHT22;44806;48.008;13.666;2023-04-28T14:08:17;13.10;99.90
59025;DHT22;44806;48.008;13.666;2023-04-28T14:10:44;13.10;99.90
59025;DHT22;44806;48.008;13.666;2023-04-28T14:13:11;13.00;99.90
59025;DHT22;44806;48.008;13.666;2023-04-28T14:15:38;13.00;99.90
59025;DHT22;44806;48.008;13.666;2023-04-28T14:18:06;13.00;99.90
59025;DHT22;44806;48.008;13.666;2023-04-28T14:20:35;13.00;99.90
59025;DHT22;44806;48.008;13.666;2023-04-28T14:23:02;13.00;99.90
59025;DHT22;44806;48.008;13.666;2023-04-28T14:25:29;13.00;99.90
59025;DHT22;44806;48.008;13.666;2023-04-28T14:27:57;13.00;99.90
59025;DHT22;44806;48.008;13.666;2023-04-28T14:30:24;13.00;99.90
59025;DHT22;44806;48.008;13.666;2023-04-28T14:32:51;13.10;99.90
59025;DHT22;44806;48.008;13.666;2023-04-28T14:35:19;13.10;99.90
59025;DHT22;44806;48.008;13.666;2023-04-28T14:37:47;13.10;99.90
59025;DHT22;44806;48.008;13.666;2023-04-28T14:40:15;13.10;99.90
59025;DHT22;44806;48.008;13.666;2023-04-28T14:42:42;13.10;99.90
59025;DHT22;44806;48.008;13.666;2023-04-28T14:45:10;13.10;99.90
59025;DHT22;44806;48.008;13.666;2023-04-28T14:47:38;13.10;99.90
59025;DHT22;44806;48.008;13.666;2023-04-28T14:50:07;13.00;99.90
59025;DHT22;44806;48.008;13.666;2023-04-28T14:52:34;13.00;99.90
59025;DHT22;44806;48.008;13.666;2023-04-28T14:55:03;13.20;99.90
59025;DHT22;44806;48.008;13.666;2023-04-28T14:57:30;13.20;99.90
59025;DHT22;44806;48.008;13.666;2023-04-28T14:59:59;13.20;99.90
59025;DHT22;44806;48.008;13.666;2023-04-28T15:02:29;13.20;99.90
59025;DHT22;44806;48.008;13.666;2023-04-28T15:04:56;13.20;99.90
59025;DHT22;44806;48.008;13.666;2023-04-28T15:07:23;13.20;99.90
59025;DHT22;44806;48.008;13.666;2023-04-28T15:09:53;13.20;99.90
59025;DHT22;44806;48.008;13.666;2023-04-28T15:12:21;13.20;99.90
59025;DHT22;44806;48.008;13.666;2023-04-28T15:14:49;13.10;99.90
59025;DHT22;44806;48.008;13.666;2023-04-28T15:17:18;13.10;99.90
59025;DHT22;44806;48.008;13.666;2023-04-28T15:19:45;13.20;99.90
59025;DHT22;44806;48.008;13.666;2023-04-28T15:22:12;13.20;99.90
59025;DHT22;44806;48.008;13.666;2023-04-28T15:24:39;13.20;99.90
59025;DHT22;44806;48.008;13.666;2023-04-28T15:27:06;13.30;99.90
59025;DHT22;44806;48.008;13.666;2023-04-28T15:29:34;13.30;99.90
59025;DHT22;44806;48.008;13.666;2023-04-28T15:32:02;13.30;99.90
59025;DHT22;44806;48.008;13.666;2023-04-28T15:34:29;13.30;99.90